Time;durP1;ratioP1;P1;durP2;ratioP2;P2;SDS_P1;SDS_P2;PMS_P1;PMS_P2;Temp;Humidity;BMP_temperature;BMP_pressure;BME280_temperature;BME280_humidity;BME280_pressure;Samples;Min_cycle;Max_cycle;Signal;HPM_P1;HPM_P2
2023/12/02 00:25:50;;;;;;;25.58;10.15;;;;;;;-2.19;100.00;101032.75;6155986;23;20487;-92
2023/12/02 00:29:27;;;;;;;;;;;;;;;;;;;;;
2023/12/02 00:39:21;;;;;;;;;;;;;;;;;;;;;
2023/12/02 00:42:01;;;;;;;24.48;10.13;;;;;;;-2.30;100.00;101031.06;6094176;23;20070;-91
2023/12/02 00:44:53;;;;;;;23.20;9.70;;;;;;;-2.33;100.00;101039.38;6086773;23;20089;-92
2023/12/02 00:48:02;;;;;;;;;;;;;;;;;;;;;
2023/12/02 00:51:00;;;;;;;23.02;9.88;;;;;;;-2.34;100.00;101032.47;6123211;23;20587;-92
2023/12/02 00:54:01;;;;;;;23.90;10.07;;;;;;;-2.30;100.00;101026.84;6122960;23;20014;-91
2023/12/02 00:57:01;;;;;;;20.75;9.35;;;;;;;-2.35;100.00;101033.22;6099479;23;20097;-91
2023/12/02 01:07:00;;;;;;;24.85;10.35;;;;;;;-2.38;100.00;101035.53;6065106;23;20014;-92
2023/12/02 01:10:11;;;;;;;;;;;;;;;;;;;;;
2023/12/02 01:13:02;;;;;;;25.05;10.68;;;;;;;-2.30;100.00;101020.84;6065130;23;20457;-91
2023/12/02 01:15:39;;;;;;;22.73;10.43;;;;;;;-2.27;100.00;101027.06;6040738;23;20465;-92
2023/12/02 01:18:25;;;;;;;26.00;11.15;;;;;;;-2.24;100.00;101023.00;6040751;23;20006;-92
2023/12/02 01:21:01;;;;;;;22.40;10.13;;;;;;;-2.23;100.00;101017.09;6043181;23;20011;-91
2023/12/02 01:23:46;;;;;;;23.80;10.52;;;;;;;-2.23;100.00;101019.66;6040905;23;20056;-91
2023/12/02 01:27:01;;;;;;;27.00;10.90;;;;;;;-2.30;100.00;101018.31;6040282;23;20007;-91
2023/12/02 01:29:56;;;;;;;21.85;9.50;;;;;;;-2.40;100.00;101005.56;6065112;23;20014;-90
2023/12/02 01:32:29;;;;;;;24.20;10.38;;;;;;;-2.46;100.00;101022.19;6040212;23;20014;-91
2023/12/02 01:35:23;;;;;;;24.27;10.73;;;;;;;-2.37;100.00;101022.03;6040591;23;20013;-91
2023/12/02 01:38:33;;;;;;;25.27;11.40;;;;;;;-2.31;100.00;101027.59;6041351;23;20439;-91
2023/12/02 01:41:32;;;;;;;24.50;10.70;;;;;;;-2.26;100.00;101030.50;6056733;23;20053;-91
2023/12/02 01:44:07;;;;;;;24.65;10.57;;;;;;;-2.21;100.00;101028.34;6040236;23;20015;-90
2023/12/02 01:47:04;;;;;;;27.48;11.48;;;;;;;-2.22;100.00;101041.84;6040136;23;20042;-91
2023/12/02 01:50:03;;;;;;;24.00;10.15;;;;;;;-2.19;100.00;101049.75;6032677;23;20379;-90
2023/12/02 01:52:29;;;;;;;25.67;10.55;;;;;;;-2.16;100.00;101053.44;6096887;23;20014;-91
2023/12/02 01:55:03;;;;;;;23.33;10.88;;;;;;;-2.16;100.00;101057.63;6128126;23;20097;-91
2023/12/02 01:58:06;;;;;;;23.35;10.75;;;;;;;-2.19;100.00;101044.66;6129213;23;20333;-91
2023/12/02 02:00:50;;;;;;;30.80;11.65;;;;;;;-2.25;100.00;101046.72;6112079;23;20020;-91
2023/12/02 02:03:18;;;;;;;25.38;11.95;;;;;;;-2.32;100.00;101050.44;6125473;23;20013;-91
2023/12/02 02:06:17;;;;;;;29.15;12.27;;;;;;;-2.30;100.00;101048.94;6128401;23;20009;-91
2023/12/02 02:08:54;;;;;;;28.63;11.17;;;;;;;-2.25;100.00;101049.28;6128472;23;20028;-91
2023/12/02 02:11:52;;;;;;;26.33;11.65;;;;;;;-2.20;100.00;101056.53;6128869;23;20009;-91
2023/12/02 02:14:47;;;;;;;25.10;10.88;;;;;;;-2.25;100.00;101050.16;6127810;23;20376;-91
2023/12/02 02:17:41;;;;;;;24.75;11.15;;;;;;;-2.25;100.00;101046.72;6128558;23;20417;-91
2023/12/02 02:20:23;;;;;;;27.63;10.80;;;;;;;-2.26;100.00;101043.25;6128578;23;20068;-90
2023/12/02 02:23:13;;;;;;;26.83;10.82;;;;;;;-2.23;100.00;101047.72;6128566;23;20429;-91
2023/12/02 02:25:49;;;;;;;24.02;10.65;;;;;;;-2.24;100.00;101043.41;6128757;23;20060;-91
2023/12/02 02:28:30;;;;;;;25.92;11.23;;;;;;;-2.25;100.00;101051.84;6127785;23;20005;-90
2023/12/02 02:30:59;;;;;;;24.88;10.77;;;;;;;-2.28;100.00;101047.38;6150646;23;20005;-91
2023/12/02 02:33:42;;;;;;;26.15;11.15;;;;;;;-2.32;100.00;101046.25;6153356;23;20001;-91
2023/12/02 02:36:47;;;;;;;25.50;11.05;;;;;;;-2.30;100.00;101044.69;6129153;23;20009;-91
2023/12/02 02:39:20;;;;;;;27.10;11.35;;;;;;;-2.30;100.00;101060.00;6128159;23;20029;-92
2023/12/02 02:41:46;;;;;;;26.55;11.02;;;;;;;-2.33;100.00;101059.78;6127960;23;20040;-92
2023/12/02 02:44:17;;;;;;;24.38;10.70;;;;;;;-2.36;100.00;101059.53;6154616;23;20021;-91
2023/12/02 02:49:54;;;;;;;26.83;12.05;;;;;;;-2.36;100.00;101061.19;6157746;23;20132;-91
2023/12/02 02:52:27;;;;;;;28.83;12.07;;;;;;;-2.33;100.00;101063.97;6158552;23;20005;-92
2023/12/02 02:55:01;;;;;;;25.48;10.65;;;;;;;-2.28;100.00;101078.00;6158090;23;20005;-91
2023/12/02 02:57:51;;;;;;;25.88;11.63;;;;;;;-2.27;100.00;101070.47;6157627;23;20029;-91
2023/12/02 03:00:39;;;;;;;;;;;;;;;;;;;;;
2023/12/02 03:03:18;;;;;;;26.05;11.70;;;;;;;-2.28;100.00;101085.66;6186217;23;20084;-91
2023/12/02 03:06:19;;;;;;;27.33;11.55;;;;;;;-2.26;100.00;101081.53;6158489;23;20448;-91
2023/12/02 03:09:01;;;;;;;25.40;10.52;;;;;;;-2.21;100.00;101085.38;6142720;23;20433;-92
2023/12/02 03:11:38;;;;;;;25.13;11.88;;;;;;;-2.21;100.00;101079.38;6159834;23;20005;-90
2023/12/02 03:14:15;;;;;;;26.63;11.35;;;;;;;-2.23;100.00;101081.81;6186711;23;20084;-92
2023/12/02 03:17:14;;;;;;;;;;;;;;;;;;;;;
2023/12/02 03:19:49;;;;;;;26.95;11.65;;;;;;;-2.26;100.00;101089.19;6186197;23;20406;-92
2023/12/02 03:22:35;;;;;;;26.02;10.88;;;;;;;-2.28;100.00;101083.09;6159221;23;20015;-92
2023/12/02 03:25:23;;;;;;;26.70;11.77;;;;;;;-2.28;100.00;101076.31;6159279;23;20544;-92
2023/12/02 03:28:05;;;;;;;29.40;12.47;;;;;;;-2.26;100.00;101081.53;6160284;23;20035;-91
2023/12/02 03:30:52;;;;;;;30.83;12.18;;;;;;;-2.28;100.00;101083.97;6159498;23;20036;-91
2023/12/02 03:33:36;;;;;;;24.83;10.65;;;;;;;-2.30;100.00;101077.00;6159849;23;20005;-91
2023/12/02 03:36:01;;;;;;;27.90;11.65;;;;;;;-2.31;100.00;101076.09;6185632;23;20370;-92
2023/12/02 03:38:38;;;;;;;25.52;11.68;;;;;;;-2.31;100.00;101076.09;6159418;23;20005;-92
2023/12/02 03:41:40;;;;;;;27.77;12.68;;;;;;;-2.29;100.00;101077.13;6159887;23;20055;-92
2023/12/02 03:45:06;;;;;;;;;;;;;;;;;;;;;
2023/12/02 03:47:50;;;;;;;25.27;11.10;;;;;;;-2.28;100.00;101083.09;6095409;23;20089;-91
2023/12/02 03:50:47;;;;;;;27.10;10.90;;;;;;;-2.30;100.00;101067.66;6160061;23;20021;-92
2023/12/02 03:53:30;;;;;;;27.65;11.93;;;;;;;-2.38;100.00;101091.69;6158116;23;20005;-92
2023/12/02 03:56:08;;;;;;;28.25;11.35;;;;;;;-2.40;100.00;101087.22;6159437;23;20079;-92
2023/12/02 03:59:03;;;;;;;28.63;11.85;;;;;;;-2.37;100.00;101100.25;6160225;23;20008;-92
2023/12/02 04:05:02;;;;;;;27.02;11.55;;;;;;;-2.51;100.00;101107.66;6178042;23;20088;-92
2023/12/02 04:07:56;;;;;;;28.88;11.68;;;;;;;-2.50;100.00;101091.59;6159556;23;20008;-92
2023/12/02 04:10:56;;;;;;;24.33;10.82;;;;;;;-2.49;100.00;101110.34;6150758;23;20063;-90
2023/12/02 04:13:46;;;;;;;25.85;10.90;;;;;;;-2.47;100.00;101104.59;6160096;23;20642;-92
2023/12/02 04:16:27;;;;;;;24.02;10.40;;;;;;;-2.45;100.00;101112.38;6156911;23;20011;-93
2023/12/02 04:19:43;;;;;;;28.70;11.45;;;;;;;-2.43;100.00;101113.41;6147390;23;20005;-92
2023/12/02 04:26:03;;;;;;;;;;;;;;;;;;;;;
2023/12/02 04:35:53;;;;;;;;;;;;;;;;;;;;;
2023/12/02 04:42:01;;;;;;;23.00;10.65;;;;;;;-2.53;100.00;101126.19;6180762;23;20032;-93
2023/12/02 04:44:56;;;;;;;22.65;10.38;;;;;;;-2.55;100.00;101125.16;6160013;23;20009;-93
2023/12/02 04:47:56;;;;;;;25.48;11.40;;;;;;;-2.65;100.00;101118.41;6159752;23;20001;-93
2023/12/02 04:51:06;;;;;;;26.75;11.18;;;;;;;-2.65;100.00;101129.53;6097810;23;20025;-93
2023/12/02 04:54:11;;;;;;;24.25;10.73;;;;;;;-2.68;100.00;101120.72;6094603;23;20010;-94
2023/12/02 04:56:58;;;;;;;26.17;10.85;;;;;;;-2.68;100.00;101126.75;6070830;23;20035;-93
2023/12/02 04:59:55;;;;;;;24.88;10.55;;;;;;;-2.61;100.00;101135.75;6070533;23;20083;-93
2023/12/02 05:02:54;;;;;;;26.70;11.10;;;;;;;-2.57;100.00;101125.03;6070904;23;20089;-93
2023/12/02 05:05:57;;;;;;;25.02;10.60;;;;;;;-2.59;100.00;101131.69;6018878;23;20079;-93
2023/12/02 05:08:52;;;;;;;27.08;11.40;;;;;;;-2.59;100.00;101146.09;6013244;23;20070;-92
2023/12/02 05:12:08;;;;;;;25.33;10.35;;;;;;;-2.54;100.00;101147.38;6060432;23;20450;-94
2023/12/02 05:19:09;;;;;;;23.85;10.13;;;;;;;-2.58;100.00;101155.53;6084975;23;20010;-93
2023/12/02 05:22:16;;;;;;;23.17;10.40;;;;;;;-2.52;100.00;101162.03;6099592;23;20009;-93
2023/12/02 05:25:00;;;;;;;26.77;11.00;;;;;;;-2.48;100.00;101160.59;6099200;23;20105;-94
2023/12/02 05:28:42;;;;;;;25.15;11.50;;;;;;;-2.50;100.00;101163.03;6099093;23;20116;-93
2023/12/02 05:34:45;;;;;;;28.88;12.50;;;;;;;-2.58;100.00;101163.19;6095615;23;20109;-94
2023/12/02 05:38:01;;;;;;;22.63;9.95;;;;;;;-2.66;100.00;101160.91;6034563;23;20003;-92
2023/12/02 05:41:04;;;;;;;27.05;11.13;;;;;;;-2.71;100.00;101154.56;6037449;23;20012;-94
2023/12/02 05:47:01;;;;;;;24.50;10.07;;;;;;;-2.72;100.00;101137.47;6038174;23;20071;-93
2023/12/02 05:49:50;;;;;;;23.33;10.68;;;;;;;-2.75;100.00;101139.75;6013203;23;20007;-93
2023/12/02 05:55:43;;;;;;;23.45;10.15;;;;;;;-2.76;100.00;101166.03;6033485;23;20230;-93
2023/12/02 05:59:00;;;;;;;26.05;10.93;;;;;;;-2.75;100.00;101175.47;6024804;23;20066;-93
2023/12/02 06:02:01;;;;;;;23.58;10.10;;;;;;;-2.71;100.00;101180.06;6001604;23;20008;-94
2023/12/02 06:08:35;;;;;;;26.88;11.65;;;;;;;-2.74;100.00;101186.53;6095333;23;20017;-93
2023/12/02 06:11:34;;;;;;;24.55;10.25;;;;;;;-2.74;100.00;101179.78;6059432;23;20481;-93
2023/12/02 06:18:11;;;;;;;22.90;10.23;;;;;;;-2.70;100.00;101176.72;6095563;23;20017;-93
2023/12/02 06:24:30;;;;;;;26.50;11.05;;;;;;;-2.69;100.00;101186.16;5989179;23;20014;-93
2023/12/02 06:27:28;;;;;;;25.65;11.32;;;;;;;-2.70;100.00;101188.59;5969616;23;20015;-93
2023/12/02 06:30:34;;;;;;;25.73;10.52;;;;;;;-2.66;100.00;101190.63;6036555;23;20008;-93
2023/12/02 06:33:45;;;;;;;25.65;11.00;;;;;;;-2.65;100.00;101197.50;6096362;23;20067;-93
2023/12/02 06:36:42;;;;;;;25.63;12.30;;;;;;;-2.68;100.00;101190.50;6127409;23;20576;-93
2023/12/02 06:43:30;;;;;;;;;;;;;;;;;;;;;
2023/12/02 06:46:05;;;;;;;25.08;10.73;;;;;;;-2.59;100.00;101207.31;6065779;23;20099;-93
2023/12/02 06:49:18;;;;;;;23.90;10.52;;;;;;;-2.52;100.00;101214.69;6065800;23;20348;-92
2023/12/02 06:59:03;;;;;;;26.58;11.40;;;;;;;-2.51;100.00;101212.28;6155828;23;20048;-93
2023/12/02 07:02:23;;;;;;;27.83;12.05;;;;;;;-2.51;100.00;101224.16;6129081;23;20017;-92
2023/12/02 07:05:21;;;;;;;25.65;10.85;;;;;;;-2.56;100.00;101227.97;6155243;23;20001;-93
2023/12/02 07:12:09;;;;;;;;;;;;;;;;;;;;;
2023/12/02 07:18:00;;;;;;;28.05;12.20;;;;;;;-2.54;100.00;101240.09;5924530;24;20077;-93
2023/12/02 07:20:35;;;;;;;29.77;12.40;;;;;;;-2.52;100.00;101242.75;5947893;24;20012;-93
2023/12/02 07:23:53;;;;;;;26.20;11.70;;;;;;;-2.49;100.00;101250.66;5924924;24;20016;-93
2023/12/02 07:26:43;;;;;;;29.05;12.13;;;;;;;-2.47;100.00;101259.34;5998087;23;20034;-93
2023/12/02 07:29:52;;;;;;;33.47;12.73;;;;;;;-2.48;100.00;101255.94;6025071;23;20015;-92
2023/12/02 07:36:35;;;;;;;27.65;12.07;;;;;;;-2.50;100.00;101265.09;6028956;23;20347;-93
2023/12/02 07:39:02;;;;;;;29.08;12.25;;;;;;;-2.48;100.00;101265.22;5950529;23;20468;-92
2023/12/02 07:41:38;;;;;;;28.60;12.05;;;;;;;-2.47;100.00;101264.47;6055262;23;20013;-92
2023/12/02 07:44:36;;;;;;;30.23;13.60;;;;;;;-2.55;100.00;101265.47;6129642;23;20002;-92
2023/12/02 07:47:32;;;;;;;27.55;12.35;;;;;;;-2.58;100.00;101249.91;6152498;23;20433;-92
2023/12/02 07:50:11;;;;;;;28.77;12.30;;;;;;;-2.62;100.00;101267.53;6131021;23;20325;-93
2023/12/02 07:52:40;;;;;;;;;;;;;;;-2.58;100.00;101281.41;6158558;23;20021;-92
2023/12/02 07:55:21;;;;;;;31.20;11.95;;;;;;;-2.59;100.00;101278.72;6160176;23;19904;-92
2023/12/02 07:57:58;;;;;;;28.67;12.48;;;;;;;-2.66;100.00;101288.44;6160833;23;20008;-92
2023/12/02 08:00:39;;;;;;;29.55;12.80;;;;;;;-2.65;100.00;101285.13;6159963;23;20013;-93
2023/12/02 08:03:43;;;;;;;;;;;;;;;;;;;;;
2023/12/02 08:06:30;;;;;;;29.02;12.10;;;;;;;-2.65;100.00;101295.34;6186785;23;20089;-93
2023/12/02 08:08:56;;;;;;;29.17;12.00;;;;;;;-2.67;100.00;101299.41;6160069;23;20454;-92
2023/12/02 08:11:49;;;;;;;31.35;13.13;;;;;;;-2.63;100.00;101287.81;6159923;23;20028;-92
2023/12/02 08:14:31;;;;;;;29.85;12.18;;;;;;;-2.62;100.00;101300.69;6159373;23;20503;-93
2023/12/02 08:17:07;;;;;;;28.40;12.27;;;;;;;-2.60;100.00;101310.13;6160335;23;20084;-91
2023/12/02 08:19:37;;;;;;;27.88;11.93;;;;;;;-2.63;100.00;101309.09;6159974;23;20443;-92
2023/12/02 08:22:08;;;;;;;29.58;12.52;;;;;;;-2.62;100.00;101315.09;6158750;23;20001;-92
2023/12/02 08:24:42;;;;;;;31.60;12.23;;;;;;;-2.60;100.00;101315.25;6159838;23;20080;-92
2023/12/02 08:27:11;;;;;;;30.30;12.13;;;;;;;-2.58;100.00;101331.56;6159917;23;20088;-93
2023/12/02 08:29:39;;;;;;;27.95;12.77;;;;;;;-2.58;100.00;101326.44;6159906;23;20005;-92
2023/12/02 08:32:08;;;;;;;29.17;12.15;;;;;;;-2.57;100.00;101334.22;6159847;23;20080;-92
2023/12/02 08:34:33;;;;;;;32.53;13.63;;;;;;;-2.56;100.00;101343.69;6159933;23;20004;-92
2023/12/02 08:36:59;;;;;;;26.83;12.30;;;;;;;-2.56;100.00;101336.03;6159509;23;20324;-90
2023/12/02 08:39:24;;;;;;;27.90;12.38;;;;;;;-2.59;100.00;101333.22;6159422;23;20147;-92
2023/12/02 08:41:50;;;;;;;31.13;11.65;;;;;;;-2.64;100.00;101337.03;6159169;23;20348;-91
2023/12/02 08:44:23;;;;;;;29.33;12.27;;;;;;;-2.66;100.00;101344.56;6159343;23;20001;-92
2023/12/02 08:46:56;;;;;;;35.08;13.18;;;;;;;-2.68;100.00;101346.09;6159701;23;20088;-91
2023/12/02 08:49:21;;;;;;;31.13;12.32;;;;;;;-2.67;100.00;101349.53;6159395;23;20028;-92
2023/12/02 08:51:47;;;;;;;29.00;13.05;;;;;;;-2.69;100.00;101357.06;6158651;23;20751;-91
2023/12/02 08:54:19;;;;;;;31.35;13.18;;;;;;;-2.68;100.00;101348.66;6159145;23;20040;-91
2023/12/02 08:56:47;;;;;;;32.10;13.40;;;;;;;-2.64;100.00;101353.25;6158893;23;20436;-91
2023/12/02 08:59:12;;;;;;;29.45;12.40;;;;;;;-2.67;100.00;101352.06;6158493;23;20451;-91
2023/12/02 09:01:38;;;;;;;32.17;13.48;;;;;;;-2.68;100.00;101351.19;6159356;23;20013;-90
2023/12/02 09:04:07;;;;;;;29.52;12.77;;;;;;;-2.72;100.00;101361.91;6159098;23;20371;-90
2023/12/02 09:06:37;;;;;;;30.70;12.32;;;;;;;-2.73;100.00;101356.66;6159117;23;20080;-90
2023/12/02 09:09:07;;;;;;;29.27;12.75;;;;;;;-2.74;100.00;101360.84;6158725;23;20005;-90
2023/12/02 09:11:32;;;;;;;32.92;13.27;;;;;;;-2.72;100.00;101359.34;6159447;23;20017;-91
2023/12/02 09:13:58;;;;;;;33.97;14.25;;;;;;;-2.68;100.00;101360.47;6184920;23;20027;-91
2023/12/02 09:16:29;;;;;;;32.17;13.32;;;;;;;-2.68;100.00;101361.41;6158881;23;20336;-91
2023/12/02 09:19:00;;;;;;;33.30;13.07;;;;;;;-2.64;100.00;101376.19;6158803;23;20067;-91
2023/12/02 09:21:45;;;;;;;30.38;13.48;;;;;;;-2.62;100.00;101378.88;6185205;23;20451;-90
2023/12/02 09:24:55;;;;;;;32.22;13.90;;;;;;;-2.62;100.00;101367.00;6184615;23;20476;-90
2023/12/02 09:28:03;;;;;;;31.05;13.60;;;;;;;-2.60;100.00;101376.47;6156924;23;20008;-91
2023/12/02 09:30:29;;;;;;;32.53;13.05;;;;;;;-2.59;100.00;101374.03;6157907;23;20379;-90
2023/12/02 09:33:00;;;;;;;33.30;14.77;;;;;;;-2.58;100.00;101369.81;6158165;23;20059;-91
2023/12/02 09:35:34;;;;;;;30.33;13.32;;;;;;;-2.53;100.00;101374.53;6158541;23;20009;-90
2023/12/02 09:38:16;;;;;;;34.22;14.32;;;;;;;-2.51;100.00;101379.78;6157054;23;20012;-91
2023/12/02 09:41:15;;;;;;;33.20;13.40;;;;;;;-2.40;100.00;101383.22;6157397;23;20028;-90
2023/12/02 09:43:54;;;;;;;31.73;12.70;;;;;;;-2.41;100.00;101392.53;6184610;23;20001;-91
2023/12/02 09:50:24;;;;;;;32.80;13.07;;;;;;;-2.25;100.00;101391.28;6184695;23;20004;-91
2023/12/02 09:53:54;;;;;;;32.53;12.40;;;;;;;-2.23;100.00;101392.31;6109364;23;20445;-91
2023/12/02 10:01:06;;;;;;;;;;;;;;;;;;;;;
2023/12/02 10:03:56;;;;;;;34.35;12.18;;;;;;;-2.01;100.00;101378.00;6092299;23;20548;-90
2023/12/02 10:06:44;;;;;;;;;;;;;;;-2.00;100.00;101379.81;6154762;23;20084;-90
2023/12/02 10:10:03;;;;;;;;;;;;;;;;;;;;;
2023/12/02 10:13:02;;;;;;;32.20;13.95;;;;;;;-1.95;100.00;101381.06;6183766;23;20084;-92
2023/12/02 10:16:09;;;;;;;30.80;12.93;;;;;;;-1.90;100.00;101385.66;6159031;23;20001;-92
2023/12/02 10:19:16;;;;;;;;;;;;;;;;;;;;;
2023/12/02 10:33:03;;;;;;;32.50;12.45;;;;;;;-1.61;100.00;101385.47;6066828;23;20032;-94
2023/12/02 11:07:23;;;;;;;;;;;;;;;;;;;;;
2023/12/02 11:23:52;;;;;;;33.05;11.68;;;;;;;-1.24;100.00;101404.66;5981966;24;20011;-93
2023/12/02 11:27:02;;;;;;;31.83;13.75;;;;;;;-1.17;100.00;101398.38;5982301;23;20004;-92
2023/12/02 11:33:56;;;;;;;;;;;;;;;;;;;;;
2023/12/02 11:44:00;;;;;;;32.78;12.25;;;;;;;-1.05;100.00;101399.34;6096623;23;20065;-91
2023/12/02 11:54:01;;;;;;;35.55;14.55;;;;;;;-0.88;100.00;101400.69;6184358;23;20833;-93
2023/12/02 12:01:02;;;;;;;34.95;14.68;;;;;;;-0.85;100.00;101401.69;6187091;23;20609;-92
2023/12/02 12:38:02;;;;;;;37.08;15.07;;;;;;;-0.62;100.00;101401.84;6095432;23;20476;-92
2023/12/02 13:23:28;;;;;;;;;;;;;;;;;;;;;
2023/12/02 13:26:08;;;;;;;32.60;14.25;;;;;;;-0.37;100.00;101440.44;5897970;24;20104;-93
2023/12/02 13:32:01;;;;;;;29.95;12.93;;;;;;;-0.37;100.00;101447.25;6009582;23;20103;-93
2023/12/02 13:45:42;;;;;;;;;;;;;;;;;;;;;
2023/12/02 14:21:01;;;;;;;34.83;14.40;;;;;;;-0.06;100.00;101470.06;6038149;23;20060;-95
2023/12/02 14:44:49;;;;;;;;;;;;;;;;;;;;;
2023/12/02 15:05:55;;;;;;;;;;;;;;;;;;;;;
2023/12/02 15:32:02;;;;;;;44.88;18.00;;;;;;;-0.35;100.00;101566.03;6187582;23;20016;-94
2023/12/02 15:45:01;;;;;;;37.40;15.60;;;;;;;-0.38;100.00;101570.91;6097221;23;19916;-95
2023/12/02 16:01:52;;;;;;;39.72;19.42;;;;;;;-0.45;100.00;101604.47;6010876;23;20044;-95
2023/12/02 16:05:00;;;;;;;32.72;15.38;;;;;;;-0.47;100.00;101606.03;6001649;23;20035;-94
2023/12/02 16:15:01;;;;;;;41.50;18.10;;;;;;;-0.49;100.00;101622.91;6007634;23;20367;-95
2023/12/02 16:35:01;;;;;;;40.20;17.75;;;;;;;-0.55;100.00;101636.09;5982586;24;20007;-95
2023/12/02 16:41:02;;;;;;;38.58;17.98;;;;;;;-0.56;100.00;101648.03;6039183;23;20022;-95
2023/12/02 16:51:05;;;;;;;38.33;16.63;;;;;;;-0.57;100.00;101655.56;6039366;23;20038;-94
2023/12/02 17:18:02;;;;;;;39.03;16.65;;;;;;;-0.58;100.00;101684.50;6062645;23;20064;-94
2023/12/02 17:25:00;;;;;;;41.10;16.90;;;;;;;-0.58;100.00;101695.66;5872089;24;20020;-94
2023/12/02 17:51:02;;;;;;;38.13;18.42;;;;;;;-0.57;100.00;101696.53;5926002;24;20076;-95
2023/12/02 18:04:01;;;;;;;46.58;20.80;;;;;;;-0.55;100.00;101697.53;6066578;23;20403;-94
2023/12/02 18:23:02;;;;;;;42.90;18.35;;;;;;;-0.59;100.00;101714.31;6125482;23;20084;-92
2023/12/02 18:26:06;;;;;;;38.40;18.80;;;;;;;-0.59;100.00;101716.88;6149022;23;20010;-93
2023/12/02 19:13:32;;;;;;;;;;;;;;;;;;;;;
2023/12/02 19:23:51;;;;;;;32.55;14.32;;;;;;;-0.76;100.00;101735.06;6023388;23;20086;-91
2023/12/02 19:47:04;;;;;;;41.05;18.13;;;;;;;-0.83;100.00;101732.75;6038218;23;20099;-91
2023/12/02 19:54:03;;;;;;;41.97;18.70;;;;;;;-0.85;100.00;101740.31;5990982;24;20076;-91
2023/12/02 20:00:03;;;;;;;39.22;16.42;;;;;;;-0.84;100.00;101756.53;5967499;24;20088;-91
2023/12/02 20:03:03;;;;;;;40.15;17.63;;;;;;;-0.80;100.00;101758.59;5981440;24;20088;-90
2023/12/02 20:06:05;;;;;;;39.75;19.02;;;;;;;-0.82;100.00;101761.03;5957287;24;20012;-92
2023/12/02 20:19:04;;;;;;;41.85;19.10;;;;;;;-0.83;100.00;101772.03;5924980;24;20083;-91
2023/12/02 20:36:00;;;;;;;44.42;18.02;;;;;;;-0.88;100.00;101783.53;6028203;23;20136;-92
2023/12/02 20:42:37;;;;;;;43.53;18.23;;;;;;;-0.83;100.00;101783.94;6038021;23;20408;-92
2023/12/02 20:55:50;;;;;;;40.95;18.05;;;;;;;-0.83;100.00;101781.38;6037420;23;20010;-91
2023/12/02 21:12:02;;;;;;;46.38;20.17;;;;;;;-1.03;100.00;101775.44;6066432;23;20030;-92
2023/12/02 21:15:01;;;;;;;43.17;18.65;;;;;;;-1.05;100.00;101785.53;6042341;23;20502;-91
2023/12/02 21:21:28;;;;;;;40.65;18.25;;;;;;;-1.10;100.00;101791.94;6066700;23;20066;-92
2023/12/02 21:50:00;;;;;;;48.40;19.30;;;;;;;-1.16;100.00;101808.41;6037573;23;20019;-93
2023/12/02 21:57:00;;;;;;;48.03;20.23;;;;;;;-1.20;100.00;101812.38;6064139;23;20053;-93
2023/12/02 22:38:11;;;;;;;51.20;20.02;;;;;;;-1.25;100.00;101851.97;5980552;24;20039;-93
2023/12/02 22:48:01;;;;;;;;;;;;;;;;;;;;;
2023/12/02 22:58:02;;;;;;;52.63;19.80;;;;;;;-1.17;100.00;101856.13;5999511;23;20052;-93
2023/12/02 23:08:03;;;;;;;46.95;17.90;;;;;;;-1.08;100.00;101863.69;5980553;23;20012;-92
2023/12/02 23:21:01;;;;;;;38.95;14.27;;;;;;;-0.78;100.00;101869.63;5954938;24;20051;-93
2023/12/02 23:31:02;;;;;;;41.22;15.90;;;;;;;-0.74;100.00;101872.63;5927621;24;20401;-93
2023/12/02 23:48:02;;;;;;;35.15;13.82;;;;;;;-0.53;100.00;101880.31;5982314;24;20109;-92
2023/12/02 23:54:01;;;;;;;37.38;14.88;;;;;;;-0.44;100.00;101878.53;5982627;24;20092;-92
